CLU weather

Columbus Municipal Airport
Columbus, Indiana, United States

Public forecast

Using degrees Fahrenheit for public forecast. Weather courtesy of forecast.io.

METAR (pilot weather report)

Retrieved 2019/05/19 15:45 UTC (47 minutes ago):

KBAK 191545Z 22008KT 10SM BKN031 OVC036 20/17 A2981

TAF (pilot weather forecast)

Closest forecast is Indianapolis International Airport, 33.0 nm (61.1 km) NW. Retrieved 2019/05/19 12:27 UTC (4 hours ago):

TAF KIND 191125Z 1912/2018 19014G22KT P6SM VCSH BKN100 FM191500 19020G30KT 6SM SHRA BR OVC027 TEMPO 1915/1919 2SM TS BR OVC015CB FM192100 21018G30KT P6SM VCSH BKN040 FM200400 23010KT P6SM BKN080 FM201100 28010KT P6SM SCT050